Kezdőlap
METAR-TAF:

METAR-TAF

Repülőterek :

Kalkutta, India

földrajzi szélesség: 22-39N, földrajzi hosszúság: 088-27E, magasság: 4 m

Jelenlegi meteorológiai megfigyelések

A jelentés 35 perccel ezelõtt készült, 04:00 UTC
Észak-északnyugati szél 5 kt
Hőmérséklet 23°C
Páratartalom 69%
Légköri nyomás 1018 hPa
Látótávolság: 2500 m
Párásság

METAR: VECC 090400Z 34005KT 2500 BR NSC 23/17 Q1018 NOSIG

Idő: 10:05 (04:35 UTC)

Előrejelzés

A jelentés 2 órával és 35 perccel ezelõtt készült, 02:00 UTC
Az előrejelzés 09-én 03 óra UTC és 09-én 12 óra UTC között érvényes
Észak-északkeleti szél 5 kt
Látótávolság: 2600 m
Szórványos felhőzet 10000 lábon
Száraz légköri homály
09-én 05 óra UTC és 09-én 07 óra UTC között fokozatosan kialakuló
Látótávolság: 3500 m
Száraz légköri homály

TAF: VECC 090200Z 0903/0912 02005KT 2600 HZ SCT100 BECMG 0905/0907 3500 HZ

Meteorológiai megfigyelések és előrejelzések több, mint 4000 repülőtéren (METAR és TAF jelentéseket).

A térképen piros és sárga pontok jelzik az elérhető meteorológiai állomásokat.

Mozgassa az egeret a pont fölött, hogy megjelenjen az állomás neve.

Azután kattintson az időjárási megfigyelések és előrejelzések megtekintéséhez.

A térkép megváltoztatása: kattintson a fekete keresztel jelölt zöld gombra ráközelítéshez, a vonallal jelölt zöld gombra távolításhoz, vagy a zöld nyilakra a szomszédos térképek eléréséhez.


METAR-TAF: